createdAt,value
2022-08-22T00:03:15.495Z,1.70
2022-08-22T00:08:21.928Z,1.75
2022-08-22T00:13:23.793Z,2.13
2022-08-22T00:18:34.511Z,1.92
2022-08-22T00:23:45.607Z,1.85
2022-08-22T00:28:57.341Z,2.00
2022-08-22T00:34:03.575Z,2.10
2022-08-22T00:39:22.361Z,2.05
2022-08-22T00:44:44.219Z,1.67
2022-08-22T00:50:19.486Z,2.00
2022-08-22T00:55:38.350Z,1.80
2022-08-22T01:00:50.778Z,1.60
2022-08-22T01:06:21.905Z,1.75
2022-08-22T01:11:45.404Z,1.77
2022-08-22T01:16:47.275Z,1.80
2022-08-22T01:22:09.902Z,1.80
2022-08-22T01:27:51.136Z,1.65
2022-08-22T01:38:24.707Z,2.30
2022-08-22T01:44:01.269Z,1.83
2022-08-22T01:49:21.913Z,2.20
2022-08-22T01:55:04.913Z,2.00
2022-08-22T02:00:17.179Z,1.85
2022-08-22T02:05:39.799Z,1.75
2022-08-22T02:11:38.966Z,2.10
2022-08-22T02:16:44.085Z,1.80
2022-08-22T02:22:22.921Z,1.90
2022-08-22T02:27:49.147Z,2.10
2022-08-22T02:33:16.059Z,1.90
2022-08-22T02:38:36.728Z,2.00
2022-08-22T02:43:57.363Z,1.98
2022-08-22T02:49:27.467Z,1.90
2022-08-22T02:54:38.485Z,2.00
2022-08-22T03:00:31.629Z,2.10
2022-08-22T03:05:37.381Z,1.92
2022-08-22T03:10:49.149Z,2.10
2022-08-22T03:15:59.716Z,1.90
2022-08-22T03:21:23.216Z,1.75
2022-08-22T03:26:47.252Z,1.85
2022-08-22T03:32:09.976Z,2.15
2022-08-22T03:37:35.721Z,2.03
2022-08-22T03:42:59.830Z,2.05
2022-08-22T03:48:32.010Z,1.85
2022-08-22T03:53:45.809Z,2.03
2022-08-22T03:59:10.143Z,2.00
2022-08-22T04:04:20.986Z,1.88
2022-08-22T04:09:44.943Z,2.00
2022-08-22T04:15:15.811Z,1.70
2022-08-22T04:20:32.563Z,2.28
2022-08-22T04:26:11.893Z,2.20
2022-08-22T04:31:18.961Z,2.15
2022-08-22T04:36:35.027Z,2.10
2022-08-22T04:41:55.021Z,1.90
2022-08-22T04:46:59.411Z,1.80
2022-08-22T04:52:39.532Z,2.00
2022-08-22T04:58:07.076Z,1.88
2022-08-22T05:03:15.494Z,1.90
2022-08-22T05:08:23.617Z,2.00
2022-08-22T05:13:32.148Z,1.90
2022-08-22T05:18:39.897Z,1.92
2022-08-22T05:23:43.703Z,2.00
2022-08-22T05:28:52.959Z,2.10
2022-08-22T05:34:04.621Z,2.00
2022-08-22T05:39:13.433Z,2.00
2022-08-22T05:44:22.004Z,2.28
2022-08-22T05:49:49.394Z,2.05
2022-08-22T05:54:57.279Z,2.00
2022-08-22T06:00:12.827Z,2.17
2022-08-22T06:05:23.773Z,1.95
2022-08-22T06:10:32.215Z,1.83
2022-08-22T06:16:07.526Z,2.00
2022-08-22T06:21:19.013Z,1.98
2022-08-22T06:26:21.670Z,2.22
2022-08-22T06:31:30.638Z,2.10
2022-08-22T06:36:36.015Z,2.00
2022-08-22T06:41:48.141Z,2.13
2022-08-22T06:46:54.516Z,2.00
2022-08-22T06:52:02.083Z,2.15
2022-08-22T06:57:06.644Z,2.20
2022-08-22T07:02:21.476Z,2.20
2022-08-22T07:07:26.756Z,2.20
2022-08-22T07:12:32.254Z,2.25
2022-08-22T07:17:36.870Z,2.10
2022-08-22T07:22:56.370Z,2.47
2022-08-22T07:28:04.038Z,2.28
2022-08-22T07:33:26.253Z,2.50
2022-08-22T07:38:43.072Z,2.45
2022-08-22T07:44:09.544Z,2.50
2022-08-22T07:49:22.380Z,2.58
2022-08-22T07:54:35.634Z,2.20
2022-08-22T07:59:39.947Z,2.30
2022-08-22T08:04:42.751Z,2.60
2022-08-22T08:09:53.953Z,2.45
2022-08-22T08:14:56.741Z,2.47
2022-08-22T08:20:03.134Z,2.22
2022-08-22T08:25:07.554Z,2.33
2022-08-22T08:30:34.366Z,2.58
2022-08-22T08:35:42.370Z,2.55
2022-08-22T08:41:23.956Z,2.58
2022-08-22T08:46:25.678Z,2.15
2022-08-22T08:51:43.075Z,2.28
2022-08-22T08:57:08.562Z,2.10
2022-08-22T09:02:50.510Z,2.25
2022-08-22T09:08:14.371Z,1.85
2022-08-22T09:13:41.759Z,2.22
2022-08-22T09:19:04.921Z,2.20
2022-08-22T09:24:58.154Z,2.28
2022-08-22T09:30:11.645Z,2.30
2022-08-22T09:35:19.302Z,2.13
2022-08-22T09:40:39.644Z,2.03
2022-08-22T09:46:02.094Z,2.38
2022-08-22T09:51:31.450Z,2.55
2022-08-22T09:56:53.219Z,2.40
2022-08-22T10:02:15.669Z,2.20
2022-08-22T10:07:55.029Z,2.50
2022-08-22T10:13:04.428Z,2.50
2022-08-22T10:18:27.137Z,2.53
2022-08-22T10:23:56.227Z,2.28
2022-08-22T10:29:25.838Z,2.30
2022-08-22T10:34:36.518Z,2.47
2022-08-22T10:39:55.913Z,2.20
2022-08-22T10:45:35.215Z,2.40
2022-08-22T10:50:43.811Z,2.30
2022-08-22T10:55:50.644Z,2.33
2022-08-22T11:01:02.079Z,2.72
2022-08-22T11:06:44.806Z,2.60
2022-08-22T11:12:19.345Z,2.45
2022-08-22T11:17:38.122Z,2.40
2022-08-22T11:23:37.691Z,2.15
2022-08-22T11:28:58.326Z,2.30
2022-08-22T11:34:23.826Z,2.40
2022-08-22T11:40:01.407Z,2.50
2022-08-22T11:45:06.860Z,2.42
2022-08-22T11:50:35.549Z,2.70
2022-08-22T11:55:48.564Z,2.53
2022-08-22T12:01:00.616Z,2.25
2022-08-22T12:06:18.236Z,2.35
2022-08-22T12:11:31.169Z,2.60
2022-08-22T12:16:45.152Z,2.72
2022-08-22T12:22:28.928Z,2.38
2022-08-22T12:27:55.269Z,2.40
2022-08-22T12:33:07.544Z,2.40
2022-08-22T12:38:38.544Z,2.35
2022-08-22T12:43:49.779Z,2.28
2022-08-22T12:49:13.803Z,2.53
2022-08-22T12:54:46.389Z,2.35
2022-08-22T12:59:52.370Z,2.30
2022-08-22T13:04:58.534Z,2.60
2022-08-22T13:10:03.122Z,2.33
2022-08-22T13:15:28.269Z,2.30
2022-08-22T13:20:39.828Z,2.50
2022-08-22T13:26:08.331Z,2.20
2022-08-22T13:31:24.031Z,2.42
2022-08-22T13:36:28.683Z,2.40
2022-08-22T13:41:49.902Z,2.35
2022-08-22T13:47:13.959Z,2.20
2022-08-22T13:52:30.213Z,2.25
2022-08-22T13:57:40.700Z,2.47
2022-08-22T14:03:05.645Z,2.40
2022-08-22T14:08:30.219Z,2.15
2022-08-22T14:13:38.050Z,2.35
2022-08-22T14:18:48.069Z,1.90
2022-08-22T14:23:53.554Z,2.20
2022-08-22T14:28:59.365Z,2.10
2022-08-22T14:34:12.885Z,2.10
2022-08-22T14:39:33.299Z,2.10
2022-08-22T14:45:08.442Z,2.35
2022-08-22T14:50:48.972Z,2.45
2022-08-22T14:56:30.538Z,2.28
2022-08-22T15:01:37.294Z,2.20
2022-08-22T15:06:51.372Z,2.33
2022-08-22T15:11:53.478Z,2.38
2022-08-22T15:16:59.447Z,2.10
2022-08-22T15:22:19.008Z,2.00
2022-08-22T15:27:21.797Z,2.33
2022-08-22T15:32:35.270Z,2.28
2022-08-22T15:37:55.575Z,2.30
2022-08-22T15:42:58.324Z,2.47
2022-08-22T15:48:04.479Z,2.40
2022-08-22T15:53:15.446Z,2.25
2022-08-22T15:58:24.945Z,2.35
2022-08-22T16:03:31.039Z,2.15
2022-08-22T16:08:49.907Z,2.20
2022-08-22T16:14:21.340Z,2.20
2022-08-22T16:19:27.819Z,2.17
2022-08-22T16:24:53.952Z,2.20
2022-08-22T16:30:05.644Z,2.35
2022-08-22T16:35:07.875Z,2.20
2022-08-22T16:40:16.962Z,2.08
2022-08-22T16:45:24.626Z,2.08
2022-08-22T16:50:38.564Z,2.50
2022-08-22T16:56:09.242Z,2.20
2022-08-22T17:01:23.708Z,1.98
2022-08-22T17:07:02.757Z,2.05
2022-08-22T17:12:29.528Z,2.10
2022-08-22T17:17:34.097Z,2.40
2022-08-22T17:23:00.201Z,2.08
2022-08-22T17:28:26.254Z,2.05
2022-08-22T17:33:55.212Z,2.08
2022-08-22T17:39:24.579Z,2.10
2022-08-22T17:44:38.906Z,2.22
2022-08-22T17:49:45.210Z,2.78
2022-08-22T17:55:13.163Z,2.10
2022-08-22T18:00:47.465Z,2.40
2022-08-22T18:06:18.863Z,2.53
2022-08-22T18:11:28.031Z,2.05
2022-08-22T18:16:29.699Z,2.22
2022-08-22T18:21:37.121Z,2.20
2022-08-22T18:26:41.479Z,2.00
2022-08-22T18:32:00.551Z,2.22
2022-08-22T18:37:30.667Z,2.30
2022-08-22T18:42:48.208Z,2.50
2022-08-22T18:47:57.034Z,2.20
2022-08-22T18:52:59.563Z,2.17
2022-08-22T18:58:19.485Z,2.30
2022-08-22T19:04:14.985Z,2.30
2022-08-22T19:09:54.770Z,2.20
2022-08-22T19:15:22.517Z,2.42
2022-08-22T19:20:49.635Z,2.72
2022-08-22T19:26:26.247Z,2.05
2022-08-22T19:31:41.873Z,2.50
2022-08-22T19:36:47.908Z,2.10
2022-08-22T19:41:52.476Z,2.58
2022-08-22T19:47:12.024Z,2.35
2022-08-22T19:57:48.940Z,2.50
2022-08-22T20:03:02.408Z,2.47
2022-08-22T20:08:19.453Z,2.45
2022-08-22T20:13:24.330Z,2.70
2022-08-22T20:19:17.304Z,2.53
2022-08-22T20:24:39.812Z,2.67
2022-08-22T20:30:13.793Z,2.60
2022-08-22T20:35:21.670Z,2.90
2022-08-22T20:46:25.423Z,2.72
2022-08-22T20:51:31.648Z,2.58
2022-08-22T20:56:36.344Z,2.47
2022-08-22T21:01:39.073Z,2.58
2022-08-22T21:06:40.705Z,2.75
2022-08-22T21:11:50.890Z,2.50
2022-08-22T21:16:53.266Z,2.33
2022-08-22T21:22:18.013Z,2.55
2022-08-22T21:27:33.126Z,2.47
2022-08-22T21:32:47.968Z,2.65
2022-08-22T21:37:52.215Z,2.70
2022-08-22T21:43:27.397Z,2.53
2022-08-22T21:48:44.042Z,2.50
2022-08-22T21:53:45.724Z,2.65
2022-08-22T21:58:47.384Z,2.90
2022-08-22T22:03:49.111Z,2.92
2022-08-22T22:08:50.929Z,2.90
2022-08-22T22:13:52.553Z,2.60
2022-08-22T22:18:54.783Z,2.60
2022-08-22T22:23:58.616Z,2.50
2022-08-22T22:29:00.570Z,2.40
2022-08-22T22:34:02.593Z,2.85
2022-08-22T22:39:05.763Z,2.90
2022-08-22T22:44:07.530Z,2.75
2022-08-22T22:49:09.184Z,2.45
2022-08-22T22:54:11.196Z,2.75
2022-08-22T22:59:13.734Z,2.35
2022-08-22T23:04:16.634Z,2.80
2022-08-22T23:09:18.263Z,2.70
2022-08-22T23:14:19.984Z,2.60
2022-08-22T23:19:21.601Z,2.92
2022-08-22T23:24:24.576Z,2.60
2022-08-22T23:29:26.548Z,2.70
2022-08-22T23:34:35.490Z,2.90
2022-08-22T23:39:38.467Z,2.77
2022-08-22T23:44:41.700Z,2.70
2022-08-22T23:49:43.675Z,2.90
2022-08-22T23:54:45.319Z,3.00
2022-08-22T23:59:57.837Z,2.80
